sensor_id;sensor_type;location;lat;lon;timestamp;P1;durP1;ratioP1;P2;durP2;ratioP2
7583;SDS011;3833;41.764;26.204;2023-03-01T00:01:18;2.90;;;2.70;;
7583;SDS011;3833;41.764;26.204;2023-03-01T00:03:45;3.73;;;3.43;;
7583;SDS011;3833;41.764;26.204;2023-03-01T00:06:12;3.70;;;3.40;;
7583;SDS011;3833;41.764;26.204;2023-03-01T00:08:39;3.40;;;3.17;;
7583;SDS011;3833;41.764;26.204;2023-03-01T00:11:07;3.80;;;3.50;;
7583;SDS011;3833;41.764;26.204;2023-03-01T00:13:38;4.17;;;3.83;;
7583;SDS011;3833;41.764;26.204;2023-03-01T00:16:06;4.77;;;4.37;;
7583;SDS011;3833;41.764;26.204;2023-03-01T00:18:35;4.13;;;3.83;;
7583;SDS011;3833;41.764;26.204;2023-03-01T00:21:02;4.87;;;4.47;;
7583;SDS011;3833;41.764;26.204;2023-03-01T00:23:29;5.00;;;4.50;;
7583;SDS011;3833;41.764;26.204;2023-03-01T00:25:56;4.70;;;4.30;;
7583;SDS011;3833;41.764;26.204;2023-03-01T00:28:23;4.97;;;4.57;;
7583;SDS011;3833;41.764;26.204;2023-03-01T00:30:51;4.40;;;4.00;;
7583;SDS011;3833;41.764;26.204;2023-03-01T00:33:18;5.63;;;5.13;;
7583;SDS011;3833;41.764;26.204;2023-03-01T00:35:45;4.97;;;4.57;;
7583;SDS011;3833;41.764;26.204;2023-03-01T00:38:12;4.73;;;4.33;;
7583;SDS011;3833;41.764;26.204;2023-03-01T00:40:38;5.13;;;4.63;;
7583;SDS011;3833;41.764;26.204;2023-03-01T00:43:05;4.90;;;4.50;;
7583;SDS011;3833;41.764;26.204;2023-03-01T00:45:32;5.10;;;4.40;;
7583;SDS011;3833;41.764;26.204;2023-03-01T00:48:01;4.57;;;4.27;;
7583;SDS011;3833;41.764;26.204;2023-03-01T00:50:27;4.63;;;4.23;;
7583;SDS011;3833;41.764;26.204;2023-03-01T00:52:54;4.70;;;4.30;;
7583;SDS011;3833;41.764;26.204;2023-03-01T00:55:22;4.63;;;4.23;;
7583;SDS011;3833;41.764;26.204;2023-03-01T00:57:49;4.87;;;4.47;;
7583;SDS011;3833;41.764;26.204;2023-03-01T01:00:17;5.20;;;4.80;;
7583;SDS011;3833;41.764;26.204;2023-03-01T01:02:44;4.80;;;4.40;;
7583;SDS011;3833;41.764;26.204;2023-03-01T01:05:12;4.10;;;3.80;;
7583;SDS011;3833;41.764;26.204;2023-03-01T01:07:39;3.60;;;3.30;;
7583;SDS011;3833;41.764;26.204;2023-03-01T01:10:07;3.57;;;3.30;;
7583;SDS011;3833;41.764;26.204;2023-03-01T01:12:37;3.57;;;3.27;;
7583;SDS011;3833;41.764;26.204;2023-03-01T01:15:05;3.50;;;3.20;;
7583;SDS011;3833;41.764;26.204;2023-03-01T01:17:32;2.77;;;2.57;;
7583;SDS011;3833;41.764;26.204;2023-03-01T01:19:59;3.10;;;2.67;;
7583;SDS011;3833;41.764;26.204;2023-03-01T01:22:27;2.93;;;2.40;;
7583;SDS011;3833;41.764;26.204;2023-03-01T01:24:54;3.10;;;2.77;;
7583;SDS011;3833;41.764;26.204;2023-03-01T01:27:21;3.53;;;2.43;;
7583;SDS011;3833;41.764;26.204;2023-03-01T01:29:48;2.83;;;2.63;;
7583;SDS011;3833;41.764;26.204;2023-03-01T01:32:14;3.27;;;2.97;;
7583;SDS011;3833;41.764;26.204;2023-03-01T01:34:41;2.67;;;2.47;;
7583;SDS011;3833;41.764;26.204;2023-03-01T01:37:08;3.17;;;2.97;;
7583;SDS011;3833;41.764;26.204;2023-03-01T01:39:36;3.10;;;2.80;;
7583;SDS011;3833;41.764;26.204;2023-03-01T01:42:03;2.63;;;2.43;;
7583;SDS011;3833;41.764;26.204;2023-03-01T01:44:30;3.70;;;2.73;;
7583;SDS011;3833;41.764;26.204;2023-03-01T01:46:57;3.27;;;2.97;;
7583;SDS011;3833;41.764;26.204;2023-03-01T01:49:28;3.30;;;3.00;;
7583;SDS011;3833;41.764;26.204;2023-03-01T01:52:07;3.27;;;2.97;;
7583;SDS011;3833;41.764;26.204;2023-03-01T01:54:40;3.53;;;3.23;;
7583;SDS011;3833;41.764;26.204;2023-03-01T01:57:11;3.47;;;3.17;;
7583;SDS011;3833;41.764;26.204;2023-03-01T01:59:41;3.53;;;3.23;;
7583;SDS011;3833;41.764;26.204;2023-03-01T02:02:10;3.63;;;3.33;;
7583;SDS011;3833;41.764;26.204;2023-03-01T02:04:39;4.07;;;3.50;;
7583;SDS011;3833;41.764;26.204;2023-03-01T02:07:08;4.03;;;3.70;;
7583;SDS011;3833;41.764;26.204;2023-03-01T02:09:40;4.07;;;3.77;;
7583;SDS011;3833;41.764;26.204;2023-03-01T02:12:10;4.80;;;3.90;;
7583;SDS011;3833;41.764;26.204;2023-03-01T02:14:37;4.03;;;3.63;;
7583;SDS011;3833;41.764;26.204;2023-03-01T02:17:04;4.33;;;3.93;;
7583;SDS011;3833;41.764;26.204;2023-03-01T02:19:34;4.23;;;3.83;;
7583;SDS011;3833;41.764;26.204;2023-03-01T02:22:13;5.10;;;4.70;;
7583;SDS011;3833;41.764;26.204;2023-03-01T02:24:50;6.53;;;5.93;;
7583;SDS011;3833;41.764;26.204;2023-03-01T02:27:26;4.97;;;4.57;;
7583;SDS011;3833;41.764;26.204;2023-03-01T02:30:01;5.60;;;5.10;;
7583;SDS011;3833;41.764;26.204;2023-03-01T02:32:28;6.20;;;5.60;;
7583;SDS011;3833;41.764;26.204;2023-03-01T02:34:54;5.30;;;4.83;;
7583;SDS011;3833;41.764;26.204;2023-03-01T02:37:22;5.37;;;4.93;;
7583;SDS011;3833;41.764;26.204;2023-03-01T02:39:53;5.33;;;4.93;;
7583;SDS011;3833;41.764;26.204;2023-03-01T02:42:26;5.97;;;5.47;;
7583;SDS011;3833;41.764;26.204;2023-03-01T02:44:56;5.47;;;5.00;;
7583;SDS011;3833;41.764;26.204;2023-03-01T02:47:24;5.03;;;4.60;;
7583;SDS011;3833;41.764;26.204;2023-03-01T02:49:51;5.80;;;5.30;;
7583;SDS011;3833;41.764;26.204;2023-03-01T02:52:23;6.03;;;5.23;;
7583;SDS011;3833;41.764;26.204;2023-03-01T02:55:00;5.37;;;4.87;;
7583;SDS011;3833;41.764;26.204;2023-03-01T02:57:30;6.50;;;5.90;;
7583;SDS011;3833;41.764;26.204;2023-03-01T02:59:59;5.43;;;5.03;;
7583;SDS011;3833;41.764;26.204;2023-03-01T03:02:34;5.60;;;4.97;;
7583;SDS011;3833;41.764;26.204;2023-03-01T03:05:06;5.70;;;5.30;;
7583;SDS011;3833;41.764;26.204;2023-03-01T03:07:35;7.27;;;5.23;;
7583;SDS011;3833;41.764;26.204;2023-03-01T03:10:04;5.67;;;5.17;;
7583;SDS011;3833;41.764;26.204;2023-03-01T03:12:32;5.73;;;5.23;;
7583;SDS011;3833;41.764;26.204;2023-03-01T03:14:59;5.70;;;5.20;;
7583;SDS011;3833;41.764;26.204;2023-03-01T03:17:26;5.67;;;5.27;;
7583;SDS011;3833;41.764;26.204;2023-03-01T03:19:54;6.00;;;5.50;;
7583;SDS011;3833;41.764;26.204;2023-03-01T03:22:21;5.70;;;5.20;;
7583;SDS011;3833;41.764;26.204;2023-03-01T03:24:48;5.97;;;5.37;;
7583;SDS011;3833;41.764;26.204;2023-03-01T03:27:14;6.07;;;5.47;;
7583;SDS011;3833;41.764;26.204;2023-03-01T03:29:41;6.40;;;5.80;;
7583;SDS011;3833;41.764;26.204;2023-03-01T03:32:08;6.13;;;5.53;;
7583;SDS011;3833;41.764;26.204;2023-03-01T03:34:35;5.70;;;5.20;;
7583;SDS011;3833;41.764;26.204;2023-03-01T03:37:03;6.10;;;5.50;;
7583;SDS011;3833;41.764;26.204;2023-03-01T03:39:50;6.17;;;5.67;;
7583;SDS011;3833;41.764;26.204;2023-03-01T03:42:19;6.70;;;6.10;;
7583;SDS011;3833;41.764;26.204;2023-03-01T03:44:46;6.90;;;5.40;;
7583;SDS011;3833;41.764;26.204;2023-03-01T03:47:13;5.40;;;4.90;;
7583;SDS011;3833;41.764;26.204;2023-03-01T03:49:40;6.10;;;5.60;;
7583;SDS011;3833;41.764;26.204;2023-03-01T03:52:08;6.03;;;5.43;;
7583;SDS011;3833;41.764;26.204;2023-03-01T03:54:38;6.03;;;5.37;;
7583;SDS011;3833;41.764;26.204;2023-03-01T03:57:05;7.70;;;5.50;;
7583;SDS011;3833;41.764;26.204;2023-03-01T03:59:32;5.47;;;4.97;;
7583;SDS011;3833;41.764;26.204;2023-03-01T04:01:59;5.53;;;5.03;;
7583;SDS011;3833;41.764;26.204;2023-03-01T04:04:26;5.20;;;4.70;;
7583;SDS011;3833;41.764;26.204;2023-03-01T04:06:54;5.70;;;5.20;;
7583;SDS011;3833;41.764;26.204;2023-03-01T04:09:22;4.70;;;4.30;;
7583;SDS011;3833;41.764;26.204;2023-03-01T04:11:49;5.67;;;5.17;;
7583;SDS011;3833;41.764;26.204;2023-03-01T04:14:16;4.93;;;4.47;;
7583;SDS011;3833;41.764;26.204;2023-03-01T04:16:42;5.03;;;4.53;;
7583;SDS011;3833;41.764;26.204;2023-03-01T04:19:09;5.50;;;5.00;;
7583;SDS011;3833;41.764;26.204;2023-03-01T04:21:36;5.20;;;4.70;;
7583;SDS011;3833;41.764;26.204;2023-03-01T04:24:03;5.20;;;4.53;;
7583;SDS011;3833;41.764;26.204;2023-03-01T04:26:33;5.27;;;4.50;;
7583;SDS011;3833;41.764;26.204;2023-03-01T04:29:00;5.00;;;4.50;;
7583;SDS011;3833;41.764;26.204;2023-03-01T04:31:26;5.53;;;5.03;;
7583;SDS011;3833;41.764;26.204;2023-03-01T04:33:54;5.43;;;4.93;;
7583;SDS011;3833;41.764;26.204;2023-03-01T04:36:22;5.47;;;4.87;;
7583;SDS011;3833;41.764;26.204;2023-03-01T04:38:50;4.80;;;4.40;;
7583;SDS011;3833;41.764;26.204;2023-03-01T04:41:18;5.40;;;4.90;;
7583;SDS011;3833;41.764;26.204;2023-03-01T04:43:48;4.90;;;4.23;;
7583;SDS011;3833;41.764;26.204;2023-03-01T04:46:16;5.17;;;4.60;;
7583;SDS011;3833;41.764;26.204;2023-03-01T04:48:44;5.57;;;4.17;;
7583;SDS011;3833;41.764;26.204;2023-03-01T04:51:13;4.23;;;3.83;;
7583;SDS011;3833;41.764;26.204;2023-03-01T04:53:40;4.00;;;3.60;;
7583;SDS011;3833;41.764;26.204;2023-03-01T04:56:08;3.77;;;3.40;;
7583;SDS011;3833;41.764;26.204;2023-03-01T04:58:36;3.80;;;3.40;;
7583;SDS011;3833;41.764;26.204;2023-03-01T05:01:09;4.07;;;3.67;;
7583;SDS011;3833;41.764;26.204;2023-03-01T05:03:40;3.70;;;3.40;;
7583;SDS011;3833;41.764;26.204;2023-03-01T05:06:07;4.00;;;3.37;;
7583;SDS011;3833;41.764;26.204;2023-03-01T05:08:34;3.30;;;3.00;;
7583;SDS011;3833;41.764;26.204;2023-03-01T05:11:03;3.43;;;3.00;;
7583;SDS011;3833;41.764;26.204;2023-03-01T05:13:30;3.70;;;3.30;;
7583;SDS011;3833;41.764;26.204;2023-03-01T05:15:57;3.10;;;2.90;;
7583;SDS011;3833;41.764;26.204;2023-03-01T05:18:27;3.67;;;3.30;;
7583;SDS011;3833;41.764;26.204;2023-03-01T05:20:56;4.63;;;3.20;;
7583;SDS011;3833;41.764;26.204;2023-03-01T05:23:29;4.63;;;3.47;;
7583;SDS011;3833;41.764;26.204;2023-03-01T05:25:57;4.00;;;3.10;;
7583;SDS011;3833;41.764;26.204;2023-03-01T05:28:24;3.67;;;2.90;;
7583;SDS011;3833;41.764;26.204;2023-03-01T05:30:53;3.30;;;2.90;;
7583;SDS011;3833;41.764;26.204;2023-03-01T05:33:20;3.53;;;3.23;;
7583;SDS011;3833;41.764;26.204;2023-03-01T05:35:48;3.00;;;2.70;;
7583;SDS011;3833;41.764;26.204;2023-03-01T05:38:17;3.50;;;3.07;;
7583;SDS011;3833;41.764;26.204;2023-03-01T05:40:44;3.87;;;3.07;;
7583;SDS011;3833;41.764;26.204;2023-03-01T05:43:13;4.07;;;3.00;;
7583;SDS011;3833;41.764;26.204;2023-03-01T05:45:40;3.40;;;3.10;;
7583;SDS011;3833;41.764;26.204;2023-03-01T05:48:08;3.90;;;2.70;;
7583;SDS011;3833;41.764;26.204;2023-03-01T05:50:37;3.93;;;2.77;;
7583;SDS011;3833;41.764;26.204;2023-03-01T05:53:07;4.53;;;2.60;;
7583;SDS011;3833;41.764;26.204;2023-03-01T05:55:36;3.67;;;2.87;;
7583;SDS011;3833;41.764;26.204;2023-03-01T05:58:04;3.40;;;2.60;;
7583;SDS011;3833;41.764;26.204;2023-03-01T06:00:32;3.03;;;2.73;;
7583;SDS011;3833;41.764;26.204;2023-03-01T06:03:00;3.03;;;2.73;;
7583;SDS011;3833;41.764;26.204;2023-03-01T06:05:27;4.07;;;2.70;;
7583;SDS011;3833;41.764;26.204;2023-03-01T06:07:55;2.77;;;2.33;;
7583;SDS011;3833;41.764;26.204;2023-03-01T06:10:26;3.23;;;2.47;;
7583;SDS011;3833;41.764;26.204;2023-03-01T06:12:52;3.13;;;2.83;;
7583;SDS011;3833;41.764;26.204;2023-03-01T06:15:20;3.20;;;2.90;;
7583;SDS011;3833;41.764;26.204;2023-03-01T06:17:47;3.50;;;3.20;;
7583;SDS011;3833;41.764;26.204;2023-03-01T06:20:15;3.37;;;3.07;;
7583;SDS011;3833;41.764;26.204;2023-03-01T06:22:44;3.50;;;2.40;;
7583;SDS011;3833;41.764;26.204;2023-03-01T06:25:11;3.17;;;2.83;;
7583;SDS011;3833;41.764;26.204;2023-03-01T06:27:41;4.20;;;2.70;;
7583;SDS011;3833;41.764;26.204;2023-03-01T06:30:09;3.93;;;2.93;;
7583;SDS011;3833;41.764;26.204;2023-03-01T06:32:37;3.90;;;2.60;;
7583;SDS011;3833;41.764;26.204;2023-03-01T06:35:07;3.13;;;2.83;;
7583;SDS011;3833;41.764;26.204;2023-03-01T06:37:34;2.73;;;2.50;;
7583;SDS011;3833;41.764;26.204;2023-03-01T06:40:01;2.83;;;2.60;;
7583;SDS011;3833;41.764;26.204;2023-03-01T06:42:32;4.03;;;2.63;;
7583;SDS011;3833;41.764;26.204;2023-03-01T06:45:00;3.67;;;2.70;;
7583;SDS011;3833;41.764;26.204;2023-03-01T06:47:27;2.57;;;2.37;;
7583;SDS011;3833;41.764;26.204;2023-03-01T06:49:54;3.77;;;3.43;;
7583;SDS011;3833;41.764;26.204;2023-03-01T06:52:20;3.00;;;2.73;;
7583;SDS011;3833;41.764;26.204;2023-03-01T06:54:47;3.17;;;2.77;;
7583;SDS011;3833;41.764;26.204;2023-03-01T06:57:14;3.73;;;2.30;;
7583;SDS011;3833;41.764;26.204;2023-03-01T06:59:41;2.60;;;2.40;;
7583;SDS011;3833;41.764;26.204;2023-03-01T07:02:10;2.13;;;1.93;;
7583;SDS011;3833;41.764;26.204;2023-03-01T07:04:38;2.33;;;2.13;;
7583;SDS011;3833;41.764;26.204;2023-03-01T07:07:05;3.37;;;2.33;;
7583;SDS011;3833;41.764;26.204;2023-03-01T07:09:32;2.60;;;1.83;;
7583;SDS011;3833;41.764;26.204;2023-03-01T07:11:59;2.00;;;1.80;;
7583;SDS011;3833;41.764;26.204;2023-03-01T07:14:26;1.97;;;1.70;;
7583;SDS011;3833;41.764;26.204;2023-03-01T07:16:53;2.20;;;2.00;;
7583;SDS011;3833;41.764;26.204;2023-03-01T07:19:22;3.43;;;2.20;;
7583;SDS011;3833;41.764;26.204;2023-03-01T07:21:49;2.77;;;2.57;;
7583;SDS011;3833;41.764;26.204;2023-03-01T07:24:16;2.40;;;2.20;;
7583;SDS011;3833;41.764;26.204;2023-03-01T07:26:42;4.27;;;2.00;;
7583;SDS011;3833;41.764;26.204;2023-03-01T07:29:09;2.50;;;2.30;;
7583;SDS011;3833;41.764;26.204;2023-03-01T07:31:37;2.30;;;2.10;;
7583;SDS011;3833;41.764;26.204;2023-03-01T07:34:03;1.67;;;1.50;;
7583;SDS011;3833;41.764;26.204;2023-03-01T07:36:32;2.20;;;1.67;;
7583;SDS011;3833;41.764;26.204;2023-03-01T07:38:59;2.60;;;1.70;;
7583;SDS011;3833;41.764;26.204;2023-03-01T07:41:27;4.90;;;1.73;;
7583;SDS011;3833;41.764;26.204;2023-03-01T07:43:54;1.60;;;1.50;;
7583;SDS011;3833;41.764;26.204;2023-03-01T07:46:21;2.70;;;1.87;;
7583;SDS011;3833;41.764;26.204;2023-03-01T07:48:48;1.80;;;1.43;;
7583;SDS011;3833;41.764;26.204;2023-03-01T07:51:15;2.93;;;1.63;;
7583;SDS011;3833;41.764;26.204;2023-03-01T07:53:44;1.60;;;1.50;;
7583;SDS011;3833;41.764;26.204;2023-03-01T07:56:13;1.97;;;1.80;;
7583;SDS011;3833;41.764;26.204;2023-03-01T07:58:43;2.17;;;2.07;;
7583;SDS011;3833;41.764;26.204;2023-03-01T08:01:11;2.10;;;1.80;;
7583;SDS011;3833;41.764;26.204;2023-03-01T08:03:40;1.70;;;1.60;;
7583;SDS011;3833;41.764;26.204;2023-03-01T08:06:08;1.87;;;1.50;;
7583;SDS011;3833;41.764;26.204;2023-03-01T08:08:35;1.37;;;1.30;;
7583;SDS011;3833;41.764;26.204;2023-03-01T08:11:05;2.20;;;1.60;;
7583;SDS011;3833;41.764;26.204;2023-03-01T08:13:33;2.43;;;1.50;;
7583;SDS011;3833;41.764;26.204;2023-03-01T08:16:01;2.83;;;1.50;;
7583;SDS011;3833;41.764;26.204;2023-03-01T08:18:29;2.20;;;1.47;;
7583;SDS011;3833;41.764;26.204;2023-03-01T08:20:56;3.50;;;1.67;;
7583;SDS011;3833;41.764;26.204;2023-03-01T08:23:28;2.63;;;1.93;;
7583;SDS011;3833;41.764;26.204;2023-03-01T08:26:02;2.10;;;2.00;;
7583;SDS011;3833;41.764;26.204;2023-03-01T08:28:32;2.80;;;1.50;;
7583;SDS011;3833;41.764;26.204;2023-03-01T08:30:59;4.87;;;1.70;;
7583;SDS011;3833;41.764;26.204;2023-03-01T08:33:26;2.97;;;1.60;;
7583;SDS011;3833;41.764;26.204;2023-03-01T08:36:01;2.70;;;1.70;;
7583;SDS011;3833;41.764;26.204;2023-03-01T08:38:29;3.53;;;1.63;;
7583;SDS011;3833;41.764;26.204;2023-03-01T08:40:58;2.93;;;1.93;;
7583;SDS011;3833;41.764;26.204;2023-03-01T08:43:27;1.97;;;1.80;;
7583;SDS011;3833;41.764;26.204;2023-03-01T08:45:54;2.30;;;1.70;;
7583;SDS011;3833;41.764;26.204;2023-03-01T08:48:21;2.50;;;2.10;;
7583;SDS011;3833;41.764;26.204;2023-03-01T08:50:48;2.30;;;2.13;;
7583;SDS011;3833;41.764;26.204;2023-03-01T08:53:15;4.10;;;2.30;;
7583;SDS011;3833;41.764;26.204;2023-03-01T08:55:42;2.30;;;2.10;;
7583;SDS011;3833;41.764;26.204;2023-03-01T08:58:09;2.47;;;2.27;;
7583;SDS011;3833;41.764;26.204;2023-03-01T09:00:37;2.73;;;2.43;;
7583;SDS011;3833;41.764;26.204;2023-03-01T09:03:05;3.23;;;2.83;;
7583;SDS011;3833;41.764;26.204;2023-03-01T09:05:32;3.10;;;2.80;;
7583;SDS011;3833;41.764;26.204;2023-03-01T09:08:01;3.07;;;2.77;;
7583;SDS011;3833;41.764;26.204;2023-03-01T09:10:28;3.63;;;2.53;;
7583;SDS011;3833;41.764;26.204;2023-03-01T09:12:54;4.13;;;2.83;;
7583;SDS011;3833;41.764;26.204;2023-03-01T09:15:21;2.60;;;2.40;;
7583;SDS011;3833;41.764;26.204;2023-03-01T09:17:50;3.20;;;2.80;;
7583;SDS011;3833;41.764;26.204;2023-03-01T09:20:17;3.20;;;2.63;;
7583;SDS011;3833;41.764;26.204;2023-03-01T09:22:44;3.73;;;3.40;;
7583;SDS011;3833;41.764;26.204;2023-03-01T09:25:10;3.53;;;3.23;;
7583;SDS011;3833;41.764;26.204;2023-03-01T09:27:37;3.77;;;2.80;;
7583;SDS011;3833;41.764;26.204;2023-03-01T09:30:05;3.87;;;3.47;;
7583;SDS011;3833;41.764;26.204;2023-03-01T09:32:33;3.23;;;2.93;;
7583;SDS011;3833;41.764;26.204;2023-03-01T09:35:01;5.67;;;3.73;;
7583;SDS011;3833;41.764;26.204;2023-03-01T09:37:30;4.30;;;3.60;;
7583;SDS011;3833;41.764;26.204;2023-03-01T09:39:58;4.87;;;3.20;;
7583;SDS011;3833;41.764;26.204;2023-03-01T09:42:25;4.07;;;3.20;;
7583;SDS011;3833;41.764;26.204;2023-03-01T09:44:57;3.50;;;3.20;;
7583;SDS011;3833;41.764;26.204;2023-03-01T09:47:27;5.90;;;3.77;;
7583;SDS011;3833;41.764;26.204;2023-03-01T09:49:58;8.53;;;3.70;;
7583;SDS011;3833;41.764;26.204;2023-03-01T09:52:36;6.63;;;3.70;;
7583;SDS011;3833;41.764;26.204;2023-03-01T09:55:08;6.73;;;4.80;;
7583;SDS011;3833;41.764;26.204;2023-03-01T09:57:41;6.57;;;5.27;;
7583;SDS011;3833;41.764;26.204;2023-03-01T10:00:24;5.53;;;3.63;;
7583;SDS011;3833;41.764;26.204;2023-03-01T10:02:57;6.43;;;4.20;;
7583;SDS011;3833;41.764;26.204;2023-03-01T10:05:38;9.00;;;4.50;;
7583;SDS011;3833;41.764;26.204;2023-03-01T10:08:24;5.57;;;3.63;;
7583;SDS011;3833;41.764;26.204;2023-03-01T10:10:56;6.27;;;3.57;;
7583;SDS011;3833;41.764;26.204;2023-03-01T10:13:26;6.10;;;3.87;;
7583;SDS011;3833;41.764;26.204;2023-03-01T10:16:01;5.57;;;4.10;;
7583;SDS011;3833;41.764;26.204;2023-03-01T10:18:32;7.90;;;4.20;;
7583;SDS011;3833;41.764;26.204;2023-03-01T10:21:08;4.13;;;3.73;;
7583;SDS011;3833;41.764;26.204;2023-03-01T10:23:41;5.10;;;4.27;;
7583;SDS011;3833;41.764;26.204;2023-03-01T10:26:14;5.23;;;4.30;;
7583;SDS011;3833;41.764;26.204;2023-03-01T10:28:54;6.47;;;4.30;;
7583;SDS011;3833;41.764;26.204;2023-03-01T10:31:31;5.33;;;4.23;;
7583;SDS011;3833;41.764;26.204;2023-03-01T10:34:08;7.83;;;4.80;;
7583;SDS011;3833;41.764;26.204;2023-03-01T10:36:40;5.00;;;4.50;;
7583;SDS011;3833;41.764;26.204;2023-03-01T10:39:14;5.03;;;4.40;;
7583;SDS011;3833;41.764;26.204;2023-03-01T10:41:54;8.57;;;4.83;;
7583;SDS011;3833;41.764;26.204;2023-03-01T10:47:12;10.07;;;4.83;;
7583;SDS011;3833;41.764;26.204;2023-03-01T10:49:49;6.30;;;4.87;;
7583;SDS011;3833;41.764;26.204;2023-03-01T10:52:25;15.13;;;13.20;;
7583;SDS011;3833;41.764;26.204;2023-03-01T10:54:55;19.63;;;15.43;;
7583;SDS011;3833;41.764;26.204;2023-03-01T10:57:28;17.30;;;15.20;;
7583;SDS011;3833;41.764;26.204;2023-03-01T11:00:13;13.10;;;8.23;;
7583;SDS011;3833;41.764;26.204;2023-03-01T11:02:46;11.50;;;8.37;;
7583;SDS011;3833;41.764;26.204;2023-03-01T11:05:19;8.53;;;6.80;;
7583;SDS011;3833;41.764;26.204;2023-03-01T11:07:51;7.70;;;6.27;;
7583;SDS011;3833;41.764;26.204;2023-03-01T11:10:20;7.67;;;6.40;;
7583;SDS011;3833;41.764;26.204;2023-03-01T11:12:48;10.60;;;5.63;;
7583;SDS011;3833;41.764;26.204;2023-03-01T11:15:21;8.23;;;4.97;;
7583;SDS011;3833;41.764;26.204;2023-03-01T11:17:50;7.50;;;5.50;;
7583;SDS011;3833;41.764;26.204;2023-03-01T11:20:20;5.87;;;4.93;;
7583;SDS011;3833;41.764;26.204;2023-03-01T11:22:58;7.70;;;4.77;;
7583;SDS011;3833;41.764;26.204;2023-03-01T11:25:29;5.73;;;4.47;;
7583;SDS011;3833;41.764;26.204;2023-03-01T11:27:59;6.17;;;4.27;;
7583;SDS011;3833;41.764;26.204;2023-03-01T11:30:31;5.97;;;3.80;;
7583;SDS011;3833;41.764;26.204;2023-03-01T11:33:04;4.30;;;3.50;;
7583;SDS011;3833;41.764;26.204;2023-03-01T11:35:37;5.30;;;4.30;;
7583;SDS011;3833;41.764;26.204;2023-03-01T11:38:15;5.00;;;4.50;;
7583;SDS011;3833;41.764;26.204;2023-03-01T11:40:47;5.73;;;4.47;;
7583;SDS011;3833;41.764;26.204;2023-03-01T11:43:20;6.90;;;6.10;;
7583;SDS011;3833;41.764;26.204;2023-03-01T11:46:00;5.17;;;4.60;;
7583;SDS011;3833;41.764;26.204;2023-03-01T11:48:50;5.60;;;4.30;;
7583;SDS011;3833;41.764;26.204;2023-03-01T11:51:29;4.97;;;4.47;;
7583;SDS011;3833;41.764;26.204;2023-03-01T11:54:17;3.90;;;3.60;;
7583;SDS011;3833;41.764;26.204;2023-03-01T11:56:54;5.50;;;5.00;;
7583;SDS011;3833;41.764;26.204;2023-03-01T12:05:35;8.97;;;6.80;;
7583;SDS011;3833;41.764;26.204;2023-03-01T12:08:29;6.70;;;5.90;;
7583;SDS011;3833;41.764;26.204;2023-03-01T12:11:08;5.23;;;4.03;;
7583;SDS011;3833;41.764;26.204;2023-03-01T12:13:52;7.07;;;5.57;;
7583;SDS011;3833;41.764;26.204;2023-03-01T12:16:33;9.00;;;5.63;;
7583;SDS011;3833;41.764;26.204;2023-03-01T12:22:15;8.87;;;7.23;;
7583;SDS011;3833;41.764;26.204;2023-03-01T12:24:55;5.83;;;5.23;;
7583;SDS011;3833;41.764;26.204;2023-03-01T12:28:04;5.73;;;5.23;;
7583;SDS011;3833;41.764;26.204;2023-03-01T12:30:52;6.03;;;5.43;;
7583;SDS011;3833;41.764;26.204;2023-03-01T12:33:54;3.90;;;3.60;;
7583;SDS011;3833;41.764;26.204;2023-03-01T12:36:49;4.47;;;4.07;;
7583;SDS011;3833;41.764;26.204;2023-03-01T12:39:38;4.80;;;4.40;;
7583;SDS011;3833;41.764;26.204;2023-03-01T12:42:20;3.40;;;3.10;;
7583;SDS011;3833;41.764;26.204;2023-03-01T12:44:59;3.83;;;3.27;;
7583;SDS011;3833;41.764;26.204;2023-03-01T12:47:43;3.47;;;3.23;;
7583;SDS011;3833;41.764;26.204;2023-03-01T12:50:24;3.60;;;3.30;;
7583;SDS011;3833;41.764;26.204;2023-03-01T12:53:07;4.27;;;3.97;;
7583;SDS011;3833;41.764;26.204;2023-03-01T12:55:42;3.70;;;3.40;;
7583;SDS011;3833;41.764;26.204;2023-03-01T12:58:12;3.80;;;3.50;;
7583;SDS011;3833;41.764;26.204;2023-03-01T13:00:55;3.93;;;3.63;;
7583;SDS011;3833;41.764;26.204;2023-03-01T13:03:32;3.50;;;3.20;;
7583;SDS011;3833;41.764;26.204;2023-03-01T13:06:12;3.47;;;3.17;;
7583;SDS011;3833;41.764;26.204;2023-03-01T13:08:47;3.93;;;3.60;;
7583;SDS011;3833;41.764;26.204;2023-03-01T13:11:22;5.03;;;3.67;;
7583;SDS011;3833;41.764;26.204;2023-03-01T13:13:50;5.10;;;4.60;;
7583;SDS011;3833;41.764;26.204;2023-03-01T13:16:22;3.80;;;3.50;;
7583;SDS011;3833;41.764;26.204;2023-03-01T13:19:08;3.07;;;2.77;;
7583;SDS011;3833;41.764;26.204;2023-03-01T13:21:39;3.50;;;3.20;;
7583;SDS011;3833;41.764;26.204;2023-03-01T13:29:58;3.70;;;3.40;;
7583;SDS011;3833;41.764;26.204;2023-03-01T13:32:32;3.63;;;3.33;;
7583;SDS011;3833;41.764;26.204;2023-03-01T13:35:03;4.90;;;3.60;;
7583;SDS011;3833;41.764;26.204;2023-03-01T13:41:06;4.37;;;3.63;;
7583;SDS011;3833;41.764;26.204;2023-03-01T13:43:37;3.80;;;3.50;;
7583;SDS011;3833;41.764;26.204;2023-03-01T13:46:10;4.47;;;4.07;;
7583;SDS011;3833;41.764;26.204;2023-03-01T13:48:43;7.10;;;6.40;;
7583;SDS011;3833;41.764;26.204;2023-03-01T13:51:12;15.57;;;13.90;;
7583;SDS011;3833;41.764;26.204;2023-03-01T13:53:40;3.70;;;3.40;;
7583;SDS011;3833;41.764;26.204;2023-03-01T13:56:11;3.40;;;3.10;;
7583;SDS011;3833;41.764;26.204;2023-03-01T13:58:44;3.13;;;2.83;;
7583;SDS011;3833;41.764;26.204;2023-03-01T14:01:20;4.47;;;3.87;;
7583;SDS011;3833;41.764;26.204;2023-03-01T14:03:51;6.23;;;3.73;;
7583;SDS011;3833;41.764;26.204;2023-03-01T14:06:19;4.10;;;3.70;;
7583;SDS011;3833;41.764;26.204;2023-03-01T14:08:48;4.60;;;3.70;;
7583;SDS011;3833;41.764;26.204;2023-03-01T14:14:41;6.17;;;5.13;;
7583;SDS011;3833;41.764;26.204;2023-03-01T14:17:19;9.77;;;7.13;;
7583;SDS011;3833;41.764;26.204;2023-03-01T14:20:18;4.90;;;4.40;;
7583;SDS011;3833;41.764;26.204;2023-03-01T14:22:47;8.00;;;7.20;;
7583;SDS011;3833;41.764;26.204;2023-03-01T14:25:23;5.13;;;4.70;;
7583;SDS011;3833;41.764;26.204;2023-03-01T14:27:59;5.23;;;4.20;;
7583;SDS011;3833;41.764;26.204;2023-03-01T14:30:31;5.53;;;3.60;;
7583;SDS011;3833;41.764;26.204;2023-03-01T14:33:01;4.23;;;3.80;;
7583;SDS011;3833;41.764;26.204;2023-03-01T14:35:33;5.17;;;3.90;;
7583;SDS011;3833;41.764;26.204;2023-03-01T14:38:00;3.83;;;3.43;;
7583;SDS011;3833;41.764;26.204;2023-03-01T14:40:28;4.80;;;4.40;;
7583;SDS011;3833;41.764;26.204;2023-03-01T14:42:58;5.27;;;4.27;;
7583;SDS011;3833;41.764;26.204;2023-03-01T14:45:28;4.47;;;4.07;;
7583;SDS011;3833;41.764;26.204;2023-03-01T14:47:58;4.27;;;3.87;;
7583;SDS011;3833;41.764;26.204;2023-03-01T14:50:27;4.17;;;3.77;;
7583;SDS011;3833;41.764;26.204;2023-03-01T14:52:59;3.87;;;3.57;;
7583;SDS011;3833;41.764;26.204;2023-03-01T14:55:29;3.87;;;3.50;;
7583;SDS011;3833;41.764;26.204;2023-03-01T14:57:58;4.10;;;3.77;;
7583;SDS011;3833;41.764;26.204;2023-03-01T15:00:26;3.83;;;3.20;;
7583;SDS011;3833;41.764;26.204;2023-03-01T15:02:54;4.13;;;3.73;;
7583;SDS011;3833;41.764;26.204;2023-03-01T15:05:25;4.03;;;3.63;;
7583;SDS011;3833;41.764;26.204;2023-03-01T15:07:55;3.83;;;3.27;;
7583;SDS011;3833;41.764;26.204;2023-03-01T15:10:26;3.47;;;3.17;;
7583;SDS011;3833;41.764;26.204;2023-03-01T15:12:55;3.20;;;2.90;;
7583;SDS011;3833;41.764;26.204;2023-03-01T15:15:36;3.77;;;3.37;;
7583;SDS011;3833;41.764;26.204;2023-03-01T15:18:12;3.80;;;3.50;;
7583;SDS011;3833;41.764;26.204;2023-03-01T15:20:42;7.17;;;6.47;;
7583;SDS011;3833;41.764;26.204;2023-03-01T15:23:18;3.90;;;3.60;;
7583;SDS011;3833;41.764;26.204;2023-03-01T15:25:48;4.63;;;4.00;;
7583;SDS011;3833;41.764;26.204;2023-03-01T15:28:21;4.27;;;3.87;;
7583;SDS011;3833;41.764;26.204;2023-03-01T15:30:52;4.93;;;4.43;;
7583;SDS011;3833;41.764;26.204;2023-03-01T15:33:33;11.57;;;9.00;;
7583;SDS011;3833;41.764;26.204;2023-03-01T15:36:03;7.40;;;6.27;;
7583;SDS011;3833;41.764;26.204;2023-03-01T15:38:54;7.03;;;6.33;;
7583;SDS011;3833;41.764;26.204;2023-03-01T15:41:23;6.67;;;6.03;;
7583;SDS011;3833;41.764;26.204;2023-03-01T15:43:52;8.90;;;6.57;;
7583;SDS011;3833;41.764;26.204;2023-03-01T15:46:25;8.47;;;7.57;;